sensor_id;sensor_type;location;lat;lon;timestamp;temperature;humidity
15111;DHT22;7656;51.954;7.998;2023-07-31T00:04:02;16.90;99.90
15111;DHT22;7656;51.954;7.998;2023-07-31T00:08:23;16.90;99.90
15111;DHT22;7656;51.954;7.998;2023-07-31T00:12:45;16.80;99.90
15111;DHT22;7656;51.954;7.998;2023-07-31T00:17:06;16.90;99.90
15111;DHT22;7656;51.954;7.998;2023-07-31T00:21:27;16.90;99.90
15111;DHT22;7656;51.954;7.998;2023-07-31T00:25:48;16.80;99.90
15111;DHT22;7656;51.954;7.998;2023-07-31T00:30:10;16.70;99.90
15111;DHT22;7656;51.954;7.998;2023-07-31T00:34:31;16.80;99.90
15111;DHT22;7656;51.954;7.998;2023-07-31T00:38:52;16.90;99.90
15111;DHT22;7656;51.954;7.998;2023-07-31T00:43:13;16.80;99.90
15111;DHT22;7656;51.954;7.998;2023-07-31T00:47:35;16.90;99.90
15111;DHT22;7656;51.954;7.998;2023-07-31T00:51:56;16.80;99.90
15111;DHT22;7656;51.954;7.998;2023-07-31T00:56:20;16.70;99.90
15111;DHT22;7656;51.954;7.998;2023-07-31T01:00:41;16.50;99.90
15111;DHT22;7656;51.954;7.998;2023-07-31T01:05:03;16.40;99.90
15111;DHT22;7656;51.954;7.998;2023-07-31T01:09:41;16.50;99.90
15111;DHT22;7656;51.954;7.998;2023-07-31T01:14:06;16.50;99.90
15111;DHT22;7656;51.954;7.998;2023-07-31T01:18:27;16.60;99.90
15111;DHT22;7656;51.954;7.998;2023-07-31T01:27:35;16.40;99.90
15111;DHT22;7656;51.954;7.998;2023-07-31T01:32:03;16.40;99.90
15111;DHT22;7656;51.954;7.998;2023-07-31T01:36:25;16.60;99.90
15111;DHT22;7656;51.954;7.998;2023-07-31T01:40:51;16.40;99.90
15111;DHT22;7656;51.954;7.998;2023-07-31T01:45:13;16.40;99.90
15111;DHT22;7656;51.954;7.998;2023-07-31T01:49:34;16.50;99.90
15111;DHT22;7656;51.954;7.998;2023-07-31T01:53:55;16.50;99.90
15111;DHT22;7656;51.954;7.998;2023-07-31T01:58:16;16.50;99.90
15111;DHT22;7656;51.954;7.998;2023-07-31T02:02:37;16.50;99.90
15111;DHT22;7656;51.954;7.998;2023-07-31T02:06:58;16.40;99.90
15111;DHT22;7656;51.954;7.998;2023-07-31T02:11:19;16.40;99.90
15111;DHT22;7656;51.954;7.998;2023-07-31T02:15:40;16.40;99.90
15111;DHT22;7656;51.954;7.998;2023-07-31T02:20:01;16.30;99.90
15111;DHT22;7656;51.954;7.998;2023-07-31T02:24:24;16.30;99.90
15111;DHT22;7656;51.954;7.998;2023-07-31T02:28:45;16.20;99.90
15111;DHT22;7656;51.954;7.998;2023-07-31T02:33:06;16.30;99.90
15111;DHT22;7656;51.954;7.998;2023-07-31T02:37:27;16.40;99.90
15111;DHT22;7656;51.954;7.998;2023-07-31T02:41:50;16.30;99.90
15111;DHT22;7656;51.954;7.998;2023-07-31T02:46:11;16.30;99.90
15111;DHT22;7656;51.954;7.998;2023-07-31T02:50:33;16.20;99.90
15111;DHT22;7656;51.954;7.998;2023-07-31T02:54:54;16.30;99.90
15111;DHT22;7656;51.954;7.998;2023-07-31T02:59:15;16.40;99.90
15111;DHT22;7656;51.954;7.998;2023-07-31T03:03:36;16.40;99.90
15111;DHT22;7656;51.954;7.998;2023-07-31T03:07:57;16.40;99.90
15111;DHT22;7656;51.954;7.998;2023-07-31T03:12:18;16.40;99.90
15111;DHT22;7656;51.954;7.998;2023-07-31T03:16:40;16.40;99.90
15111;DHT22;7656;51.954;7.998;2023-07-31T03:21:01;16.40;99.90
15111;DHT22;7656;51.954;7.998;2023-07-31T03:25:22;16.40;99.90
15111;DHT22;7656;51.954;7.998;2023-07-31T03:29:45;16.40;99.90
15111;DHT22;7656;51.954;7.998;2023-07-31T03:34:06;16.40;99.90
15111;DHT22;7656;51.954;7.998;2023-07-31T03:38:27;16.60;99.90
15111;DHT22;7656;51.954;7.998;2023-07-31T03:42:48;16.50;99.90
15111;DHT22;7656;51.954;7.998;2023-07-31T03:47:09;16.50;99.90
15111;DHT22;7656;51.954;7.998;2023-07-31T03:51:32;16.40;99.90
15111;DHT22;7656;51.954;7.998;2023-07-31T03:55:53;16.40;99.90
15111;DHT22;7656;51.954;7.998;2023-07-31T04:00:14;16.50;99.90
15111;DHT22;7656;51.954;7.998;2023-07-31T04:04:36;16.40;99.90
15111;DHT22;7656;51.954;7.998;2023-07-31T04:08:57;16.40;99.90
15111;DHT22;7656;51.954;7.998;2023-07-31T04:13:18;16.40;99.90
15111;DHT22;7656;51.954;7.998;2023-07-31T04:17:39;16.50;99.90
15111;DHT22;7656;51.954;7.998;2023-07-31T04:22:00;16.40;99.90
15111;DHT22;7656;51.954;7.998;2023-07-31T04:26:21;16.50;99.90
15111;DHT22;7656;51.954;7.998;2023-07-31T04:30:43;16.50;99.90
15111;DHT22;7656;51.954;7.998;2023-07-31T04:35:04;16.50;99.90
15111;DHT22;7656;51.954;7.998;2023-07-31T04:39:25;16.50;99.90
15111;DHT22;7656;51.954;7.998;2023-07-31T04:43:46;16.40;99.90
15111;DHT22;7656;51.954;7.998;2023-07-31T04:48:07;16.40;99.90
15111;DHT22;7656;51.954;7.998;2023-07-31T04:52:29;16.40;99.90
15111;DHT22;7656;51.954;7.998;2023-07-31T04:56:50;16.40;99.90
15111;DHT22;7656;51.954;7.998;2023-07-31T05:01:11;16.30;99.90
15111;DHT22;7656;51.954;7.998;2023-07-31T05:05:32;16.40;99.90
15111;DHT22;7656;51.954;7.998;2023-07-31T05:09:53;16.50;99.90
15111;DHT22;7656;51.954;7.998;2023-07-31T05:14:14;16.60;99.90
15111;DHT22;7656;51.954;7.998;2023-07-31T05:18:36;16.60;99.90
15111;DHT22;7656;51.954;7.998;2023-07-31T05:22:57;16.60;99.90
15111;DHT22;7656;51.954;7.998;2023-07-31T05:27:18;16.50;99.90
15111;DHT22;7656;51.954;7.998;2023-07-31T05:31:39;16.50;99.90
15111;DHT22;7656;51.954;7.998;2023-07-31T05:36:00;16.50;99.90
15111;DHT22;7656;51.954;7.998;2023-07-31T05:40:21;16.60;99.90
15111;DHT22;7656;51.954;7.998;2023-07-31T05:44:42;16.70;99.90
15111;DHT22;7656;51.954;7.998;2023-07-31T05:49:04;16.80;99.90
15111;DHT22;7656;51.954;7.998;2023-07-31T05:53:25;16.90;99.90
15111;DHT22;7656;51.954;7.998;2023-07-31T05:57:46;16.90;99.90
15111;DHT22;7656;51.954;7.998;2023-07-31T06:02:07;17.00;99.90
15111;DHT22;7656;51.954;7.998;2023-07-31T06:06:28;17.20;99.90
15111;DHT22;7656;51.954;7.998;2023-07-31T06:10:50;17.20;99.90
15111;DHT22;7656;51.954;7.998;2023-07-31T06:15:11;17.30;99.90
15111;DHT22;7656;51.954;7.998;2023-07-31T06:19:32;17.30;99.90
15111;DHT22;7656;51.954;7.998;2023-07-31T06:23:53;17.20;99.90
15111;DHT22;7656;51.954;7.998;2023-07-31T06:28:14;17.30;99.90
15111;DHT22;7656;51.954;7.998;2023-07-31T06:32:35;17.30;99.90
15111;DHT22;7656;51.954;7.998;2023-07-31T06:36:56;17.40;99.90
15111;DHT22;7656;51.954;7.998;2023-07-31T06:41:17;17.40;99.90
15111;DHT22;7656;51.954;7.998;2023-07-31T06:45:39;17.50;99.90
15111;DHT22;7656;51.954;7.998;2023-07-31T06:50:00;17.60;99.90
15111;DHT22;7656;51.954;7.998;2023-07-31T06:54:21;17.60;99.90
15111;DHT22;7656;51.954;7.998;2023-07-31T06:58:42;17.60;99.90
15111;DHT22;7656;51.954;7.998;2023-07-31T07:03:03;17.90;99.90
15111;DHT22;7656;51.954;7.998;2023-07-31T07:07:25;18.00;99.90
15111;DHT22;7656;51.954;7.998;2023-07-31T07:11:46;18.10;99.90
15111;DHT22;7656;51.954;7.998;2023-07-31T07:16:07;17.90;99.90
15111;DHT22;7656;51.954;7.998;2023-07-31T07:20:28;17.90;99.90
15111;DHT22;7656;51.954;7.998;2023-07-31T07:24:49;17.90;99.90
15111;DHT22;7656;51.954;7.998;2023-07-31T07:29:11;17.70;99.90
15111;DHT22;7656;51.954;7.998;2023-07-31T07:33:31;17.50;99.90
15111;DHT22;7656;51.954;7.998;2023-07-31T07:37:53;17.50;99.90
15111;DHT22;7656;51.954;7.998;2023-07-31T07:42:14;17.30;99.90
15111;DHT22;7656;51.954;7.998;2023-07-31T07:46:35;17.40;99.90
15111;DHT22;7656;51.954;7.998;2023-07-31T07:50:56;17.60;99.90
15111;DHT22;7656;51.954;7.998;2023-07-31T07:55:17;17.70;99.90
15111;DHT22;7656;51.954;7.998;2023-07-31T07:59:38;17.80;99.90
15111;DHT22;7656;51.954;7.998;2023-07-31T08:03:59;18.00;99.90
15111;DHT22;7656;51.954;7.998;2023-07-31T08:08:20;18.00;99.90
15111;DHT22;7656;51.954;7.998;2023-07-31T08:12:41;18.00;99.90
15111;DHT22;7656;51.954;7.998;2023-07-31T08:17:03;17.80;99.90
15111;DHT22;7656;51.954;7.998;2023-07-31T08:21:24;17.70;99.90
15111;DHT22;7656;51.954;7.998;2023-07-31T08:25:45;17.80;99.90
15111;DHT22;7656;51.954;7.998;2023-07-31T08:30:07;18.00;99.90
15111;DHT22;7656;51.954;7.998;2023-07-31T08:34:28;17.90;99.90
15111;DHT22;7656;51.954;7.998;2023-07-31T08:38:50;17.90;99.90
15111;DHT22;7656;51.954;7.998;2023-07-31T08:43:11;17.80;99.90
15111;DHT22;7656;51.954;7.998;2023-07-31T08:47:32;17.70;99.90
15111;DHT22;7656;51.954;7.998;2023-07-31T08:51:54;17.80;99.90
15111;DHT22;7656;51.954;7.998;2023-07-31T08:56:15;18.00;99.90
15111;DHT22;7656;51.954;7.998;2023-07-31T09:00:38;17.90;99.90
15111;DHT22;7656;51.954;7.998;2023-07-31T09:05:01;18.00;99.90
15111;DHT22;7656;51.954;7.998;2023-07-31T09:09:23;18.00;99.90
15111;DHT22;7656;51.954;7.998;2023-07-31T09:13:45;18.20;99.90
15111;DHT22;7656;51.954;7.998;2023-07-31T09:18:07;18.40;99.90
15111;DHT22;7656;51.954;7.998;2023-07-31T09:22:34;18.50;99.90
15111;DHT22;7656;51.954;7.998;2023-07-31T09:26:56;18.60;99.90
15111;DHT22;7656;51.954;7.998;2023-07-31T09:31:41;18.60;99.90
15111;DHT22;7656;51.954;7.998;2023-07-31T09:36:04;18.40;99.90
15111;DHT22;7656;51.954;7.998;2023-07-31T09:44:48;18.00;99.90
15111;DHT22;7656;51.954;7.998;2023-07-31T09:49:13;18.00;99.90
15111;DHT22;7656;51.954;7.998;2023-07-31T09:53:35;18.30;99.90
15111;DHT22;7656;51.954;7.998;2023-07-31T09:57:57;18.00;99.90
15111;DHT22;7656;51.954;7.998;2023-07-31T10:02:22;18.00;99.90
15111;DHT22;7656;51.954;7.998;2023-07-31T10:06:43;17.90;99.90
15111;DHT22;7656;51.954;7.998;2023-07-31T10:11:07;17.80;99.90
15111;DHT22;7656;51.954;7.998;2023-07-31T10:15:30;17.90;99.90
15111;DHT22;7656;51.954;7.998;2023-07-31T10:19:53;18.00;99.90
15111;DHT22;7656;51.954;7.998;2023-07-31T10:24:15;18.30;99.90
15111;DHT22;7656;51.954;7.998;2023-07-31T10:28:37;18.40;99.90
15111;DHT22;7656;51.954;7.998;2023-07-31T10:33:00;18.30;99.90
15111;DHT22;7656;51.954;7.998;2023-07-31T10:37:36;18.40;99.90
15111;DHT22;7656;51.954;7.998;2023-07-31T10:41:58;18.40;99.90
15111;DHT22;7656;51.954;7.998;2023-07-31T10:46:19;18.60;99.90
15111;DHT22;7656;51.954;7.998;2023-07-31T10:50:55;18.60;99.90
15111;DHT22;7656;51.954;7.998;2023-07-31T11:00:22;18.50;99.90
15111;DHT22;7656;51.954;7.998;2023-07-31T11:05:09;18.50;99.90
15111;DHT22;7656;51.954;7.998;2023-07-31T11:09:32;18.50;99.90
15111;DHT22;7656;51.954;7.998;2023-07-31T11:13:54;18.50;99.90
15111;DHT22;7656;51.954;7.998;2023-07-31T11:18:15;18.50;99.90
15111;DHT22;7656;51.954;7.998;2023-07-31T11:22:37;18.60;99.90
15111;DHT22;7656;51.954;7.998;2023-07-31T11:26:58;18.70;99.90
15111;DHT22;7656;51.954;7.998;2023-07-31T11:31:21;18.60;99.90
15111;DHT22;7656;51.954;7.998;2023-07-31T11:35:47;18.80;99.90
15111;DHT22;7656;51.954;7.998;2023-07-31T11:40:10;18.50;99.90
15111;DHT22;7656;51.954;7.998;2023-07-31T11:44:41;18.50;99.90
15111;DHT22;7656;51.954;7.998;2023-07-31T11:49:08;18.60;99.90
15111;DHT22;7656;51.954;7.998;2023-07-31T11:53:53;18.50;99.90
15111;DHT22;7656;51.954;7.998;2023-07-31T11:58:17;18.40;99.90
15111;DHT22;7656;51.954;7.998;2023-07-31T12:02:39;18.40;99.90
15111;DHT22;7656;51.954;7.998;2023-07-31T12:07:01;18.20;99.90
15111;DHT22;7656;51.954;7.998;2023-07-31T12:11:22;18.30;99.90
15111;DHT22;7656;51.954;7.998;2023-07-31T12:15:44;18.50;99.90
15111;DHT22;7656;51.954;7.998;2023-07-31T12:20:06;18.40;99.90
15111;DHT22;7656;51.954;7.998;2023-07-31T12:24:28;18.40;99.90
15111;DHT22;7656;51.954;7.998;2023-07-31T12:28:50;18.40;99.90
15111;DHT22;7656;51.954;7.998;2023-07-31T12:33:15;18.40;99.90
15111;DHT22;7656;51.954;7.998;2023-07-31T12:37:36;18.80;99.90
15111;DHT22;7656;51.954;7.998;2023-07-31T12:41:57;19.10;99.90
15111;DHT22;7656;51.954;7.998;2023-07-31T12:46:18;19.40;99.90
15111;DHT22;7656;51.954;7.998;2023-07-31T12:50:39;19.60;99.90
15111;DHT22;7656;51.954;7.998;2023-07-31T12:55:00;19.80;99.90
15111;DHT22;7656;51.954;7.998;2023-07-31T12:59:21;19.80;99.90
15111;DHT22;7656;51.954;7.998;2023-07-31T13:03:42;20.10;99.90
15111;DHT22;7656;51.954;7.998;2023-07-31T13:08:03;20.40;99.90
15111;DHT22;7656;51.954;7.998;2023-07-31T13:12:24;20.50;99.90
15111;DHT22;7656;51.954;7.998;2023-07-31T13:16:46;20.60;99.90
15111;DHT22;7656;51.954;7.998;2023-07-31T13:21:06;20.30;99.90
15111;DHT22;7656;51.954;7.998;2023-07-31T13:25:27;20.10;99.90
15111;DHT22;7656;51.954;7.998;2023-07-31T13:29:49;20.10;99.90
15111;DHT22;7656;51.954;7.998;2023-07-31T13:34:10;20.30;99.90
15111;DHT22;7656;51.954;7.998;2023-07-31T13:38:31;20.30;99.90
15111;DHT22;7656;51.954;7.998;2023-07-31T13:42:52;20.40;99.90
15111;DHT22;7656;51.954;7.998;2023-07-31T13:47:14;20.40;99.90
15111;DHT22;7656;51.954;7.998;2023-07-31T13:51:35;20.30;99.90
15111;DHT22;7656;51.954;7.998;2023-07-31T13:55:56;20.30;99.90
15111;DHT22;7656;51.954;7.998;2023-07-31T14:00:17;20.10;99.90
15111;DHT22;7656;51.954;7.998;2023-07-31T14:04:38;20.10;99.90
15111;DHT22;7656;51.954;7.998;2023-07-31T14:08:59;20.00;99.90
15111;DHT22;7656;51.954;7.998;2023-07-31T14:13:20;19.80;99.90
15111;DHT22;7656;51.954;7.998;2023-07-31T14:17:41;19.80;99.90
15111;DHT22;7656;51.954;7.998;2023-07-31T14:22:02;19.60;99.90
15111;DHT22;7656;51.954;7.998;2023-07-31T14:26:23;19.70;99.90
15111;DHT22;7656;51.954;7.998;2023-07-31T14:30:44;19.80;99.90
15111;DHT22;7656;51.954;7.998;2023-07-31T14:35:06;19.90;99.90
15111;DHT22;7656;51.954;7.998;2023-07-31T14:39:27;20.30;99.90
15111;DHT22;7656;51.954;7.998;2023-07-31T14:43:48;20.20;99.90
15111;DHT22;7656;51.954;7.998;2023-07-31T14:48:09;20.10;99.90
15111;DHT22;7656;51.954;7.998;2023-07-31T14:52:30;20.10;99.90
15111;DHT22;7656;51.954;7.998;2023-07-31T14:56:51;20.30;99.90
15111;DHT22;7656;51.954;7.998;2023-07-31T15:01:12;20.40;99.90
15111;DHT22;7656;51.954;7.998;2023-07-31T15:05:33;20.40;99.90
15111;DHT22;7656;51.954;7.998;2023-07-31T15:09:54;20.40;99.90
15111;DHT22;7656;51.954;7.998;2023-07-31T15:14:15;20.40;99.90
15111;DHT22;7656;51.954;7.998;2023-07-31T15:18:37;20.40;99.90
15111;DHT22;7656;51.954;7.998;2023-07-31T15:22:58;20.30;99.90
15111;DHT22;7656;51.954;7.998;2023-07-31T15:27:19;20.10;99.90
15111;DHT22;7656;51.954;7.998;2023-07-31T15:31:41;20.10;99.90
15111;DHT22;7656;51.954;7.998;2023-07-31T15:36:02;20.00;99.90
15111;DHT22;7656;51.954;7.998;2023-07-31T15:40:23;20.00;99.90
15111;DHT22;7656;51.954;7.998;2023-07-31T15:44:44;19.90;99.90
15111;DHT22;7656;51.954;7.998;2023-07-31T15:49:05;20.00;99.90
15111;DHT22;7656;51.954;7.998;2023-07-31T15:53:26;20.10;99.90
15111;DHT22;7656;51.954;7.998;2023-07-31T15:57:47;20.20;99.90
15111;DHT22;7656;51.954;7.998;2023-07-31T16:02:09;20.00;99.90
15111;DHT22;7656;51.954;7.998;2023-07-31T16:06:33;20.00;99.90
15111;DHT22;7656;51.954;7.998;2023-07-31T16:10:54;19.90;99.90
15111;DHT22;7656;51.954;7.998;2023-07-31T16:15:16;19.90;99.90
15111;DHT22;7656;51.954;7.998;2023-07-31T16:19:37;19.80;99.90
15111;DHT22;7656;51.954;7.998;2023-07-31T16:23:59;19.60;99.90
15111;DHT22;7656;51.954;7.998;2023-07-31T16:28:20;19.70;99.90
15111;DHT22;7656;51.954;7.998;2023-07-31T16:32:41;19.60;99.90
15111;DHT22;7656;51.954;7.998;2023-07-31T16:37:02;19.80;99.90
15111;DHT22;7656;51.954;7.998;2023-07-31T16:41:24;19.40;99.90
15111;DHT22;7656;51.954;7.998;2023-07-31T16:45:45;19.30;99.90
15111;DHT22;7656;51.954;7.998;2023-07-31T16:50:07;19.30;99.90
15111;DHT22;7656;51.954;7.998;2023-07-31T16:54:28;19.30;99.90
15111;DHT22;7656;51.954;7.998;2023-07-31T16:58:49;19.30;99.90
15111;DHT22;7656;51.954;7.998;2023-07-31T17:03:10;19.20;99.90
15111;DHT22;7656;51.954;7.998;2023-07-31T17:07:31;19.20;99.90
15111;DHT22;7656;51.954;7.998;2023-07-31T17:11:54;19.20;99.90
15111;DHT22;7656;51.954;7.998;2023-07-31T17:16:16;19.20;99.90
15111;DHT22;7656;51.954;7.998;2023-07-31T17:20:38;19.20;99.90
15111;DHT22;7656;51.954;7.998;2023-07-31T17:24:59;19.10;99.90
15111;DHT22;7656;51.954;7.998;2023-07-31T17:29:27;19.00;99.90
15111;DHT22;7656;51.954;7.998;2023-07-31T17:33:49;19.10;99.90
15111;DHT22;7656;51.954;7.998;2023-07-31T17:38:10;18.90;99.90
15111;DHT22;7656;51.954;7.998;2023-07-31T17:42:32;19.00;99.90
15111;DHT22;7656;51.954;7.998;2023-07-31T17:46:53;18.90;99.90
15111;DHT22;7656;51.954;7.998;2023-07-31T17:51:14;18.80;99.90
15111;DHT22;7656;51.954;7.998;2023-07-31T17:55:35;18.80;99.90
15111;DHT22;7656;51.954;7.998;2023-07-31T17:59:56;18.60;99.90
15111;DHT22;7656;51.954;7.998;2023-07-31T18:04:17;18.70;99.90
15111;DHT22;7656;51.954;7.998;2023-07-31T18:08:38;18.60;99.90
15111;DHT22;7656;51.954;7.998;2023-07-31T18:12:59;18.60;99.90
15111;DHT22;7656;51.954;7.998;2023-07-31T18:17:20;18.60;99.90
15111;DHT22;7656;51.954;7.998;2023-07-31T18:21:41;18.60;99.90
15111;DHT22;7656;51.954;7.998;2023-07-31T18:26:02;18.40;99.90
15111;DHT22;7656;51.954;7.998;2023-07-31T18:30:23;18.40;99.90
15111;DHT22;7656;51.954;7.998;2023-07-31T18:34:44;18.30;99.90
15111;DHT22;7656;51.954;7.998;2023-07-31T18:39:06;18.30;99.90
15111;DHT22;7656;51.954;7.998;2023-07-31T18:43:27;18.30;99.90
15111;DHT22;7656;51.954;7.998;2023-07-31T18:47:48;18.20;99.90
15111;DHT22;7656;51.954;7.998;2023-07-31T18:52:09;18.20;99.90
15111;DHT22;7656;51.954;7.998;2023-07-31T18:56:30;18.20;99.90
15111;DHT22;7656;51.954;7.998;2023-07-31T19:00:51;18.20;99.90
15111;DHT22;7656;51.954;7.998;2023-07-31T19:05:13;18.20;99.90
15111;DHT22;7656;51.954;7.998;2023-07-31T19:09:34;18.20;99.90
15111;DHT22;7656;51.954;7.998;2023-07-31T19:13:56;18.40;99.90
15111;DHT22;7656;51.954;7.998;2023-07-31T19:18:19;18.20;99.90
15111;DHT22;7656;51.954;7.998;2023-07-31T19:22:40;18.10;99.90
15111;DHT22;7656;51.954;7.998;2023-07-31T19:27:03;18.10;99.90
15111;DHT22;7656;51.954;7.998;2023-07-31T19:31:24;18.10;99.90
15111;DHT22;7656;51.954;7.998;2023-07-31T19:35:57;18.10;99.90
15111;DHT22;7656;51.954;7.998;2023-07-31T19:40:20;18.20;99.90
15111;DHT22;7656;51.954;7.998;2023-07-31T19:44:42;17.80;99.90
15111;DHT22;7656;51.954;7.998;2023-07-31T19:49:03;17.80;99.90
15111;DHT22;7656;51.954;7.998;2023-07-31T19:53:25;17.90;99.90
15111;DHT22;7656;51.954;7.998;2023-07-31T19:57:46;17.90;99.90
15111;DHT22;7656;51.954;7.998;2023-07-31T20:02:08;17.90;99.90
15111;DHT22;7656;51.954;7.998;2023-07-31T20:06:29;17.70;99.90
15111;DHT22;7656;51.954;7.998;2023-07-31T20:10:50;17.60;99.90
15111;DHT22;7656;51.954;7.998;2023-07-31T20:15:19;17.50;99.90
15111;DHT22;7656;51.954;7.998;2023-07-31T20:19:41;17.30;99.90
15111;DHT22;7656;51.954;7.998;2023-07-31T20:24:03;17.40;99.90
15111;DHT22;7656;51.954;7.998;2023-07-31T20:28:24;17.50;99.90
15111;DHT22;7656;51.954;7.998;2023-07-31T20:32:45;17.50;99.90
15111;DHT22;7656;51.954;7.998;2023-07-31T20:37:06;17.50;99.90
15111;DHT22;7656;51.954;7.998;2023-07-31T20:41:27;17.60;99.90
15111;DHT22;7656;51.954;7.998;2023-07-31T20:45:48;17.60;99.90
15111;DHT22;7656;51.954;7.998;2023-07-31T20:50:09;17.50;99.90
15111;DHT22;7656;51.954;7.998;2023-07-31T20:54:31;17.60;99.90
15111;DHT22;7656;51.954;7.998;2023-07-31T20:58:52;17.60;99.90
15111;DHT22;7656;51.954;7.998;2023-07-31T21:03:13;17.60;99.90
15111;DHT22;7656;51.954;7.998;2023-07-31T21:07:34;17.50;99.90
15111;DHT22;7656;51.954;7.998;2023-07-31T21:11:55;17.60;99.90
15111;DHT22;7656;51.954;7.998;2023-07-31T21:16:16;17.50;99.90
15111;DHT22;7656;51.954;7.998;2023-07-31T21:20:37;17.60;99.90
15111;DHT22;7656;51.954;7.998;2023-07-31T21:24:58;17.60;99.90
15111;DHT22;7656;51.954;7.998;2023-07-31T21:29:19;17.70;99.90
15111;DHT22;7656;51.954;7.998;2023-07-31T21:33:43;17.70;99.90
15111;DHT22;7656;51.954;7.998;2023-07-31T21:38:04;17.60;99.90
15111;DHT22;7656;51.954;7.998;2023-07-31T21:42:25;17.70;99.90
15111;DHT22;7656;51.954;7.998;2023-07-31T21:46:46;17.50;99.90
15111;DHT22;7656;51.954;7.998;2023-07-31T21:51:07;17.70;99.90
15111;DHT22;7656;51.954;7.998;2023-07-31T21:55:28;17.80;99.90
15111;DHT22;7656;51.954;7.998;2023-07-31T21:59:49;17.80;99.90
15111;DHT22;7656;51.954;7.998;2023-07-31T22:04:10;17.90;99.90
15111;DHT22;7656;51.954;7.998;2023-07-31T22:08:32;17.90;99.90
15111;DHT22;7656;51.954;7.998;2023-07-31T22:12:53;18.00;99.90
15111;DHT22;7656;51.954;7.998;2023-07-31T22:17:14;18.00;99.90
15111;DHT22;7656;51.954;7.998;2023-07-31T22:21:36;18.00;99.90
15111;DHT22;7656;51.954;7.998;2023-07-31T22:25:57;18.00;99.90
15111;DHT22;7656;51.954;7.998;2023-07-31T22:30:18;18.00;99.90
15111;DHT22;7656;51.954;7.998;2023-07-31T22:34:39;18.00;99.90
15111;DHT22;7656;51.954;7.998;2023-07-31T22:39:00;17.90;99.90
15111;DHT22;7656;51.954;7.998;2023-07-31T22:43:21;17.80;99.90
15111;DHT22;7656;51.954;7.998;2023-07-31T22:47:42;17.80;99.90
15111;DHT22;7656;51.954;7.998;2023-07-31T22:52:04;17.90;99.90
15111;DHT22;7656;51.954;7.998;2023-07-31T22:56:25;17.80;99.90
15111;DHT22;7656;51.954;7.998;2023-07-31T23:00:46;17.90;99.90
15111;DHT22;7656;51.954;7.998;2023-07-31T23:05:07;17.90;99.90
15111;DHT22;7656;51.954;7.998;2023-07-31T23:09:29;17.90;99.90
15111;DHT22;7656;51.954;7.998;2023-07-31T23:13:50;17.70;99.90
15111;DHT22;7656;51.954;7.998;2023-07-31T23:18:12;17.60;99.90
15111;DHT22;7656;51.954;7.998;2023-07-31T23:22:36;17.50;99.90
15111;DHT22;7656;51.954;7.998;2023-07-31T23:26:58;17.20;99.90
15111;DHT22;7656;51.954;7.998;2023-07-31T23:31:19;17.00;99.90
15111;DHT22;7656;51.954;7.998;2023-07-31T23:35:40;17.00;99.90
15111;DHT22;7656;51.954;7.998;2023-07-31T23:40:01;17.10;99.90
15111;DHT22;7656;51.954;7.998;2023-07-31T23:44:23;17.20;99.90
15111;DHT22;7656;51.954;7.998;2023-07-31T23:48:44;17.10;99.90
15111;DHT22;7656;51.954;7.998;2023-07-31T23:53:05;17.20;99.90
15111;DHT22;7656;51.954;7.998;2023-07-31T23:57:26;17.00;99.90
